sensor_id;sensor_type;location;lat;lon;timestamp;pressure;altitude;pressure_sealevel;temperature;humidity
75855;BME280;64502;59.976;30.316;2022-12-05T00:01:32;103202.09;;;-2.91;78.92
75855;BME280;64502;59.976;30.316;2022-12-05T00:04:02;103200.31;;;-2.92;78.60
75855;BME280;64502;59.976;30.316;2022-12-05T00:06:30;103192.53;;;-2.94;78.79
75855;BME280;64502;59.976;30.316;2022-12-05T00:09:00;103185.59;;;-2.95;78.90
75855;BME280;64502;59.976;30.316;2022-12-05T00:11:28;103183.03;;;-2.95;78.65
75855;BME280;64502;59.976;30.316;2022-12-05T00:13:55;103177.78;;;-2.96;78.84
75855;BME280;64502;59.976;30.316;2022-12-05T00:16:23;103191.66;;;-2.94;78.15
75855;BME280;64502;59.976;30.316;2022-12-05T00:18:49;103183.72;;;-2.99;78.54
75855;BME280;64502;59.976;30.316;2022-12-05T00:21:21;103188.88;;;-2.99;79.04
75855;BME280;64502;59.976;30.316;2022-12-05T00:23:47;103184.47;;;-3.01;78.32
75855;BME280;64502;59.976;30.316;2022-12-05T00:26:13;103182.78;;;-3.01;78.17
75855;BME280;64502;59.976;30.316;2022-12-05T00:28:39;103173.38;;;-2.99;78.18
75855;BME280;64502;59.976;30.316;2022-12-05T00:31:10;103178.44;;;-3.02;77.98
75855;BME280;64502;59.976;30.316;2022-12-05T00:33:37;103169.72;;;-3.05;78.48
75855;BME280;64502;59.976;30.316;2022-12-05T00:36:08;103167.16;;;-3.04;78.44
75855;BME280;64502;59.976;30.316;2022-12-05T00:38:34;103168.16;;;-3.00;78.57
75855;BME280;64502;59.976;30.316;2022-12-05T00:41:04;103169.97;;;-2.98;78.30
75855;BME280;64502;59.976;30.316;2022-12-05T00:43:31;103165.56;;;-3.00;78.12
75855;BME280;64502;59.976;30.316;2022-12-05T00:46:06;103158.72;;;-3.00;78.67
75855;BME280;64502;59.976;30.316;2022-12-05T00:48:33;103163.94;;;-2.98;78.53
75855;BME280;64502;59.976;30.316;2022-12-05T00:53:38;103160.97;;;-2.85;78.31
75855;BME280;64502;59.976;30.316;2022-12-05T00:56:09;103166.31;;;-2.80;77.86
75855;BME280;64502;59.976;30.316;2022-12-05T00:58:35;103166.38;;;-2.79;77.65
75855;BME280;64502;59.976;30.316;2022-12-05T01:01:17;103158.78;;;-2.74;77.54
75855;BME280;64502;59.976;30.316;2022-12-05T01:03:43;103152.78;;;-2.73;76.90
75855;BME280;64502;59.976;30.316;2022-12-05T01:06:11;103147.63;;;-2.73;77.38
75855;BME280;64502;59.976;30.316;2022-12-05T01:08:38;103142.41;;;-2.75;77.21
75855;BME280;64502;59.976;30.316;2022-12-05T01:11:05;103146.75;;;-2.74;76.70
75855;BME280;64502;59.976;30.316;2022-12-05T01:13:31;103150.28;;;-2.72;77.43
75855;BME280;64502;59.976;30.316;2022-12-05T01:15:57;103155.50;;;-2.70;77.19
75855;BME280;64502;59.976;30.316;2022-12-05T01:18:23;103155.50;;;-2.70;77.15
75855;BME280;64502;59.976;30.316;2022-12-05T01:20:49;103148.66;;;-2.68;77.40
75855;BME280;64502;59.976;30.316;2022-12-05T01:23:15;103145.16;;;-2.70;77.20
75855;BME280;64502;59.976;30.316;2022-12-05T01:25:43;103147.84;;;-2.67;77.38
75855;BME280;64502;59.976;30.316;2022-12-05T01:28:09;103152.25;;;-2.64;77.47
75855;BME280;64502;59.976;30.316;2022-12-05T01:30:40;103145.31;;;-2.65;77.69
75855;BME280;64502;59.976;30.316;2022-12-05T01:33:07;103147.03;;;-2.66;78.02
75855;BME280;64502;59.976;30.316;2022-12-05T01:35:33;103153.16;;;-2.62;77.72
75855;BME280;64502;59.976;30.316;2022-12-05T01:37:59;103140.47;;;-2.56;77.99
75855;BME280;64502;59.976;30.316;2022-12-05T01:40:25;103145.03;;;-2.49;77.77
75855;BME280;64502;59.976;30.316;2022-12-05T01:42:51;103143.47;;;-2.44;77.47
75855;BME280;64502;59.976;30.316;2022-12-05T01:45:29;103141.06;;;-2.39;76.90
75855;BME280;64502;59.976;30.316;2022-12-05T01:47:56;103134.28;;;-2.36;77.28
75855;BME280;64502;59.976;30.316;2022-12-05T01:50:22;103137.91;;;-2.31;77.56
75855;BME280;64502;59.976;30.316;2022-12-05T01:52:47;103127.63;;;-2.29;77.10
75855;BME280;64502;59.976;30.316;2022-12-05T01:55:15;103139.66;;;-2.30;76.21
75855;BME280;64502;59.976;30.316;2022-12-05T01:57:43;103131.97;;;-2.28;76.87
75855;BME280;64502;59.976;30.316;2022-12-05T02:00:12;103126.94;;;-2.24;77.35
75855;BME280;64502;59.976;30.316;2022-12-05T02:02:42;103127.19;;;-2.16;77.42
75855;BME280;64502;59.976;30.316;2022-12-05T02:05:16;103121.97;;;-2.17;75.48
75855;BME280;64502;59.976;30.316;2022-12-05T02:07:42;103120.19;;;-2.18;75.27
75855;BME280;64502;59.976;30.316;2022-12-05T02:10:09;103120.09;;;-2.21;75.37
75855;BME280;64502;59.976;30.316;2022-12-05T02:12:35;103126.81;;;-2.27;75.44
75855;BME280;64502;59.976;30.316;2022-12-05T02:25:58;103121.03;;;-2.19;75.48
75855;BME280;64502;59.976;30.316;2022-12-05T02:31:20;103112.22;;;-2.26;75.88
75855;BME280;64502;59.976;30.316;2022-12-05T02:34:26;103108.78;;;-2.25;75.50
75855;BME280;64502;59.976;30.316;2022-12-05T02:39:53;103115.34;;;-2.35;75.31
75855;BME280;64502;59.976;30.316;2022-12-05T02:45:03;103106.03;;;-2.30;75.48
75855;BME280;64502;59.976;30.316;2022-12-05T02:47:36;103103.53;;;-2.27;76.04
75855;BME280;64502;59.976;30.316;2022-12-05T02:50:03;103095.91;;;-2.24;75.09
75855;BME280;64502;59.976;30.316;2022-12-05T02:52:31;103100.31;;;-2.21;74.72
75855;BME280;64502;59.976;30.316;2022-12-05T02:54:58;103099.22;;;-2.28;74.68
75855;BME280;64502;59.976;30.316;2022-12-05T02:57:24;103096.47;;;-2.32;74.74
75855;BME280;64502;59.976;30.316;2022-12-05T02:59:49;103087.06;;;-2.30;75.80
75855;BME280;64502;59.976;30.316;2022-12-05T03:02:32;103087.06;;;-2.30;75.50
75855;BME280;64502;59.976;30.316;2022-12-05T03:05:24;103090.44;;;-2.33;75.73
75855;BME280;64502;59.976;30.316;2022-12-05T03:07:57;103089.56;;;-2.33;75.95
75855;BME280;64502;59.976;30.316;2022-12-05T03:10:26;103084.56;;;-2.27;75.65
75855;BME280;64502;59.976;30.316;2022-12-05T03:12:57;103079.56;;;-2.22;75.92
75855;BME280;64502;59.976;30.316;2022-12-05T03:15:27;103076.97;;;-2.22;75.00
75855;BME280;64502;59.976;30.316;2022-12-05T03:17:59;103076.19;;;-2.20;75.77
75855;BME280;64502;59.976;30.316;2022-12-05T03:20:40;103091.66;;;-2.21;74.93
75855;BME280;64502;59.976;30.316;2022-12-05T03:23:14;103079.28;;;-2.32;75.14
75855;BME280;64502;59.976;30.316;2022-12-05T03:25:54;103074.81;;;-2.36;75.33
75855;BME280;64502;59.976;30.316;2022-12-05T03:28:45;103077.38;;;-2.37;75.15
75855;BME280;64502;59.976;30.316;2022-12-05T03:31:20;103081.59;;;-2.39;75.33
75855;BME280;64502;59.976;30.316;2022-12-05T03:33:49;103081.69;;;-2.36;75.42
75855;BME280;64502;59.976;30.316;2022-12-05T03:36:22;103079.97;;;-2.36;75.40
75855;BME280;64502;59.976;30.316;2022-12-05T03:38:52;103079.13;;;-2.36;75.55
75855;BME280;64502;59.976;30.316;2022-12-05T03:44:11;103062.72;;;-2.37;75.90
75855;BME280;64502;59.976;30.316;2022-12-05T03:52:32;103060.53;;;-2.25;75.86
75855;BME280;64502;59.976;30.316;2022-12-05T03:55:01;103065.59;;;-2.28;75.62
75855;BME280;64502;59.976;30.316;2022-12-05T03:57:36;103057.06;;;-2.25;75.96
75855;BME280;64502;59.976;30.316;2022-12-05T04:00:09;103058.78;;;-2.26;75.69
75855;BME280;64502;59.976;30.316;2022-12-05T04:02:37;103056.19;;;-2.26;75.90
75855;BME280;64502;59.976;30.316;2022-12-05T04:05:23;103056.34;;;-2.21;76.61
75855;BME280;64502;59.976;30.316;2022-12-05T04:07:56;103054.56;;;-2.22;75.80
75855;BME280;64502;59.976;30.316;2022-12-05T04:10:27;103056.28;;;-2.22;76.02
75855;BME280;64502;59.976;30.316;2022-12-05T04:12:55;103047.59;;;-2.25;76.41
75855;BME280;64502;59.976;30.316;2022-12-05T04:15:27;103060.72;;;-2.18;75.54
75855;BME280;64502;59.976;30.316;2022-12-05T04:18:17;103055.44;;;-2.21;76.03
75855;BME280;64502;59.976;30.316;2022-12-05T04:20:46;103062.50;;;-2.17;75.34
75855;BME280;64502;59.976;30.316;2022-12-05T04:23:31;103062.34;;;-2.22;76.25
75855;BME280;64502;59.976;30.316;2022-12-05T04:26:08;103065.75;;;-2.23;76.55
75855;BME280;64502;59.976;30.316;2022-12-05T04:28:57;103068.38;;;-2.21;76.17
75855;BME280;64502;59.976;30.316;2022-12-05T04:31:33;103053.88;;;-2.18;76.67
75855;BME280;64502;59.976;30.316;2022-12-05T04:34:02;103047.84;;;-2.17;76.28
75855;BME280;64502;59.976;30.316;2022-12-05T04:37:09;103052.41;;;-2.10;75.54
75855;BME280;64502;59.976;30.316;2022-12-05T04:39:40;103052.34;;;-2.11;75.75
75855;BME280;64502;59.976;30.316;2022-12-05T04:42:17;103050.69;;;-2.09;76.47
75855;BME280;64502;59.976;30.316;2022-12-05T04:44:50;103047.22;;;-2.10;75.64
75855;BME280;64502;59.976;30.316;2022-12-05T04:47:18;103044.72;;;-2.07;75.92
75855;BME280;64502;59.976;30.316;2022-12-05T04:49:46;103051.50;;;-2.10;76.60
75855;BME280;64502;59.976;30.316;2022-12-05T04:52:13;103050.59;;;-2.12;75.83
75855;BME280;64502;59.976;30.316;2022-12-05T04:57:21;103045.34;;;-2.14;76.82
75855;BME280;64502;59.976;30.316;2022-12-05T04:59:48;103040.16;;;-2.15;76.97
75855;BME280;64502;59.976;30.316;2022-12-05T05:02:17;103042.94;;;-2.09;77.38
75855;BME280;64502;59.976;30.316;2022-12-05T05:04:47;103048.19;;;-2.06;77.02
75855;BME280;64502;59.976;30.316;2022-12-05T05:07:16;103055.25;;;-2.01;76.49
75855;BME280;64502;59.976;30.316;2022-12-05T05:09:42;103051.91;;;-1.98;76.30
75855;BME280;64502;59.976;30.316;2022-12-05T05:12:08;103058.03;;;-1.94;76.31
75855;BME280;64502;59.976;30.316;2022-12-05T05:14:34;103045.09;;;-1.94;75.84
75855;BME280;64502;59.976;30.316;2022-12-05T05:16:59;103047.78;;;-1.91;75.58
75855;BME280;64502;59.976;30.316;2022-12-05T05:19:25;103043.53;;;-1.89;76.11
75855;BME280;64502;59.976;30.316;2022-12-05T05:21:51;103046.03;;;-1.92;76.33
75855;BME280;64502;59.976;30.316;2022-12-05T05:24:18;103042.66;;;-1.90;76.59
75855;BME280;64502;59.976;30.316;2022-12-05T05:26:44;103044.31;;;-1.92;76.51
75855;BME280;64502;59.976;30.316;2022-12-05T05:29:11;103042.72;;;-1.88;76.40
75855;BME280;64502;59.976;30.316;2022-12-05T05:31:38;103042.75;;;-1.87;76.54
75855;BME280;64502;59.976;30.316;2022-12-05T05:34:04;103037.66;;;-1.84;76.43
75855;BME280;64502;59.976;30.316;2022-12-05T05:36:30;103051.47;;;-1.83;75.79
75855;BME280;64502;59.976;30.316;2022-12-05T05:38:58;103042.75;;;-1.87;75.95
75855;BME280;64502;59.976;30.316;2022-12-05T05:41:30;103054.91;;;-1.84;76.10
75855;BME280;64502;59.976;30.316;2022-12-05T05:43:56;103050.56;;;-1.85;76.58
75855;BME280;64502;59.976;30.316;2022-12-05T05:46:24;103050.56;;;-1.85;76.75
75855;BME280;64502;59.976;30.316;2022-12-05T05:48:49;103060.16;;;-1.83;75.69
75855;BME280;64502;59.976;30.316;2022-12-05T05:51:17;103060.16;;;-1.81;77.25
75855;BME280;64502;59.976;30.316;2022-12-05T05:53:43;103069.59;;;-1.83;75.22
75855;BME280;64502;59.976;30.316;2022-12-05T05:56:15;103061.81;;;-1.83;75.89
75855;BME280;64502;59.976;30.316;2022-12-05T05:58:41;103057.34;;;-1.89;75.67
75855;BME280;64502;59.976;30.316;2022-12-05T06:01:16;103054.81;;;-1.87;75.77
75855;BME280;64502;59.976;30.316;2022-12-05T06:03:42;103054.97;;;-1.83;76.01
75855;BME280;64502;59.976;30.316;2022-12-05T06:06:12;103046.50;;;-1.77;76.41
75855;BME280;64502;59.976;30.316;2022-12-05T06:08:41;103050.06;;;-1.73;75.93
75855;BME280;64502;59.976;30.316;2022-12-05T06:11:13;103051.91;;;-1.69;75.75
75855;BME280;64502;59.976;30.316;2022-12-05T06:13:39;103044.19;;;-1.68;75.71
75855;BME280;64502;59.976;30.316;2022-12-05T06:16:09;103044.41;;;-1.60;76.90
75855;BME280;64502;59.976;30.316;2022-12-05T06:18:35;103053.22;;;-1.53;75.83
75855;BME280;64502;59.976;30.316;2022-12-05T06:21:00;103042.97;;;-1.50;75.97
75855;BME280;64502;59.976;30.316;2022-12-05T06:23:27;103049.22;;;-1.44;75.84
75855;BME280;64502;59.976;30.316;2022-12-05T06:25:54;103057.91;;;-1.42;75.89
75855;BME280;64502;59.976;30.316;2022-12-05T06:28:22;103044.06;;;-1.42;74.70
75855;BME280;64502;59.976;30.316;2022-12-05T06:30:48;103042.31;;;-1.43;75.30
75855;BME280;64502;59.976;30.316;2022-12-05T06:33:14;103043.19;;;-1.43;75.72
75855;BME280;64502;59.976;30.316;2022-12-05T06:35:40;103043.28;;;-1.40;75.65
75855;BME280;64502;59.976;30.316;2022-12-05T06:38:07;103050.22;;;-1.39;75.14
75855;BME280;64502;59.976;30.316;2022-12-05T06:40:33;103051.84;;;-1.42;74.58
75855;BME280;64502;59.976;30.316;2022-12-05T06:42:58;103057.84;;;-1.43;74.81
75855;BME280;64502;59.976;30.316;2022-12-05T06:45:24;103050.00;;;-1.46;75.13
75855;BME280;64502;59.976;30.316;2022-12-05T06:47:51;103050.72;;;-1.50;75.88
75855;BME280;64502;59.976;30.316;2022-12-05T06:50:17;103044.75;;;-1.48;74.94
75855;BME280;64502;59.976;30.316;2022-12-05T06:52:42;103042.25;;;-1.45;75.23
75855;BME280;64502;59.976;30.316;2022-12-05T06:55:08;103045.63;;;-1.49;75.09
75855;BME280;64502;59.976;30.316;2022-12-05T06:57:34;103041.31;;;-1.48;76.07
75855;BME280;64502;59.976;30.316;2022-12-05T07:00:00;103047.34;;;-1.48;74.50
75855;BME280;64502;59.976;30.316;2022-12-05T07:02:45;103042.19;;;-1.48;75.69
75855;BME280;64502;59.976;30.316;2022-12-05T07:05:11;103050.97;;;-1.43;75.16
75855;BME280;64502;59.976;30.316;2022-12-05T07:07:36;103043.19;;;-1.43;75.18
75855;BME280;64502;59.976;30.316;2022-12-05T07:10:03;103050.09;;;-1.43;74.72
75855;BME280;64502;59.976;30.316;2022-12-05T07:12:32;103047.50;;;-1.43;76.04
75855;BME280;64502;59.976;30.316;2022-12-05T07:14:58;103050.22;;;-1.39;75.96
75855;BME280;64502;59.976;30.316;2022-12-05T07:17:23;103057.28;;;-1.33;75.57
75855;BME280;64502;59.976;30.316;2022-12-05T07:19:50;103047.09;;;-1.27;75.31
75855;BME280;64502;59.976;30.316;2022-12-05T07:22:17;103046.22;;;-1.27;74.85
75855;BME280;64502;59.976;30.316;2022-12-05T07:24:44;103053.91;;;-1.30;74.43
75855;BME280;64502;59.976;30.316;2022-12-05T07:27:09;103051.97;;;-1.38;74.79
75855;BME280;64502;59.976;30.316;2022-12-05T07:29:35;103051.94;;;-1.39;75.01
75855;BME280;64502;59.976;30.316;2022-12-05T07:32:01;103050.97;;;-1.43;75.40
75855;BME280;64502;59.976;30.316;2022-12-05T07:34:27;103049.16;;;-1.45;75.01
75855;BME280;64502;59.976;30.316;2022-12-05T07:36:52;103045.47;;;-1.53;75.55
75855;BME280;64502;59.976;30.316;2022-12-05T07:39:18;103054.88;;;-1.57;75.10
75855;BME280;64502;59.976;30.316;2022-12-05T07:41:43;103049.63;;;-1.59;75.93
75855;BME280;64502;59.976;30.316;2022-12-05T07:44:10;103053.06;;;-1.60;76.39
75855;BME280;64502;59.976;30.316;2022-12-05T07:46:36;103055.59;;;-1.61;75.69
75855;BME280;64502;59.976;30.316;2022-12-05T07:49:02;103066.69;;;-1.65;75.87
75855;BME280;64502;59.976;30.316;2022-12-05T07:51:28;103067.41;;;-1.71;75.92
75855;BME280;64502;59.976;30.316;2022-12-05T07:53:54;103059.56;;;-1.72;76.51
75855;BME280;64502;59.976;30.316;2022-12-05T07:56:20;103065.59;;;-1.73;76.23
75855;BME280;64502;59.976;30.316;2022-12-05T07:58:48;103068.28;;;-1.70;76.59
75855;BME280;64502;59.976;30.316;2022-12-05T08:01:16;103065.84;;;-1.64;76.59
75855;BME280;64502;59.976;30.316;2022-12-05T08:03:43;103067.66;;;-1.62;76.15
75855;BME280;64502;59.976;30.316;2022-12-05T08:06:11;103055.72;;;-1.57;75.89
75855;BME280;64502;59.976;30.316;2022-12-05T08:08:37;103054.00;;;-1.58;75.85
75855;BME280;64502;59.976;30.316;2022-12-05T08:11:05;103055.78;;;-1.55;75.84
75855;BME280;64502;59.976;30.316;2022-12-05T08:13:31;103060.28;;;-1.49;75.97
75855;BME280;64502;59.976;30.316;2022-12-05T08:16:05;103063.03;;;-1.43;75.29
75855;BME280;64502;59.976;30.316;2022-12-05T08:18:31;103059.66;;;-1.41;75.42
75855;BME280;64502;59.976;30.316;2022-12-05T08:21:17;103066.47;;;-1.44;75.34
75855;BME280;64502;59.976;30.316;2022-12-05T08:23:43;103069.75;;;-1.50;76.38
75855;BME280;64502;59.976;30.316;2022-12-05T08:28:36;103065.31;;;-1.54;75.75
75855;BME280;64502;59.976;30.316;2022-12-05T08:31:07;103057.59;;;-1.52;75.92
75855;BME280;64502;59.976;30.316;2022-12-05T08:33:33;103057.53;;;-1.54;75.55
75855;BME280;64502;59.976;30.316;2022-12-05T08:36:03;103054.31;;;-1.47;77.10
75855;BME280;64502;59.976;30.316;2022-12-05T08:38:30;103052.72;;;-1.42;75.81
75855;BME280;64502;59.976;30.316;2022-12-05T08:40:55;103052.91;;;-1.36;75.51
75855;BME280;64502;59.976;30.316;2022-12-05T08:43:21;103052.13;;;-1.31;75.30
75855;BME280;64502;59.976;30.316;2022-12-05T08:45:52;103055.72;;;-1.28;75.15
75855;BME280;64502;59.976;30.316;2022-12-05T08:48:18;103047.03;;;-1.30;74.84
75855;BME280;64502;59.976;30.316;2022-12-05T08:50:44;103048.75;;;-1.29;74.73
75855;BME280;64502;59.976;30.316;2022-12-05T08:53:10;103052.03;;;-1.36;74.84
75855;BME280;64502;59.976;30.316;2022-12-05T08:55:37;103047.72;;;-1.36;75.73
75855;BME280;64502;59.976;30.316;2022-12-05T08:58:03;103040.81;;;-1.35;75.45
75855;BME280;64502;59.976;30.316;2022-12-05T09:00:29;103045.13;;;-1.36;75.47
75855;BME280;64502;59.976;30.316;2022-12-05T09:02:56;103039.00;;;-1.39;75.32
75855;BME280;64502;59.976;30.316;2022-12-05T09:05:22;103039.72;;;-1.43;75.17
75855;BME280;64502;59.976;30.316;2022-12-05T09:07:48;103027.72;;;-1.41;75.32
75855;BME280;64502;59.976;30.316;2022-12-05T09:10:14;103030.41;;;-1.37;76.14
75855;BME280;64502;59.976;30.316;2022-12-05T09:12:40;103035.72;;;-1.33;75.44
75855;BME280;64502;59.976;30.316;2022-12-05T09:15:06;103027.00;;;-1.36;75.72
75855;BME280;64502;59.976;30.316;2022-12-05T09:17:32;103034.00;;;-1.31;75.05
75855;BME280;64502;59.976;30.316;2022-12-05T09:19:58;103032.22;;;-1.34;75.44
75855;BME280;64502;59.976;30.316;2022-12-05T09:22:23;103031.50;;;-1.28;75.50
75855;BME280;64502;59.976;30.316;2022-12-05T09:24:49;103036.00;;;-1.23;74.89
75855;BME280;64502;59.976;30.316;2022-12-05T09:27:15;103029.94;;;-1.23;74.71
75855;BME280;64502;59.976;30.316;2022-12-05T09:29:40;103038.38;;;-1.30;75.44
75855;BME280;64502;59.976;30.316;2022-12-05T09:32:06;103038.38;;;-1.30;75.72
75855;BME280;64502;59.976;30.316;2022-12-05T09:34:32;103029.75;;;-1.29;75.80
75855;BME280;64502;59.976;30.316;2022-12-05T09:36:59;103037.69;;;-1.23;75.51
75855;BME280;64502;59.976;30.316;2022-12-05T09:39:26;103029.22;;;-1.18;74.82
75855;BME280;64502;59.976;30.316;2022-12-05T09:55:44;103017.91;;;-1.21;75.09
75855;BME280;64502;59.976;30.316;2022-12-05T10:01:24;103017.03;;;-1.22;75.05
75855;BME280;64502;59.976;30.316;2022-12-05T10:07:12;103003.41;;;-1.15;75.90
75855;BME280;64502;59.976;30.316;2022-12-05T10:15:16;103002.16;;;-1.29;75.43
75855;BME280;64502;59.976;30.316;2022-12-05T10:21:31;102990.19;;;-1.25;74.96
75855;BME280;64502;59.976;30.316;2022-12-05T10:24:04;102986.81;;;-1.21;75.98
75855;BME280;64502;59.976;30.316;2022-12-05T10:26:41;102983.28;;;-1.25;75.31
75855;BME280;64502;59.976;30.316;2022-12-05T10:29:27;102983.22;;;-1.26;75.32
75855;BME280;64502;59.976;30.316;2022-12-05T10:32:01;102979.34;;;-1.42;74.94
75855;BME280;64502;59.976;30.316;2022-12-05T10:34:37;102977.38;;;-1.51;75.81
75855;BME280;64502;59.976;30.316;2022-12-05T10:37:10;102970.66;;;-1.44;75.18
75855;BME280;64502;59.976;30.316;2022-12-05T10:39:38;102969.53;;;-1.54;76.13
75855;BME280;64502;59.976;30.316;2022-12-05T10:42:05;102972.09;;;-1.55;76.30
75855;BME280;64502;59.976;30.316;2022-12-05T10:44:33;102969.44;;;-1.57;76.02
75855;BME280;64502;59.976;30.316;2022-12-05T10:47:00;102972.09;;;-1.55;76.13
75855;BME280;64502;59.976;30.316;2022-12-05T10:49:26;102960.91;;;-1.53;75.48
75855;BME280;64502;59.976;30.316;2022-12-05T10:51:52;102964.50;;;-1.48;76.46
75855;BME280;64502;59.976;30.316;2022-12-05T10:54:24;102964.00;;;-1.36;77.12
75855;BME280;64502;59.976;30.316;2022-12-05T10:56:52;102956.41;;;-1.28;75.72
75855;BME280;64502;59.976;30.316;2022-12-05T10:59:22;102949.56;;;-1.26;75.69
75855;BME280;64502;59.976;30.316;2022-12-05T11:01:53;102957.13;;;-1.34;75.13
75855;BME280;64502;59.976;30.316;2022-12-05T11:04:28;102952.69;;;-1.38;76.09
75855;BME280;64502;59.976;30.316;2022-12-05T11:06:59;102956.09;;;-1.41;76.06
75855;BME280;64502;59.976;30.316;2022-12-05T11:09:36;102946.66;;;-1.39;75.89
75855;BME280;64502;59.976;30.316;2022-12-05T11:12:19;102948.47;;;-1.35;76.27
75855;BME280;64502;59.976;30.316;2022-12-05T11:17:35;102950.44;;;-1.26;75.87
75855;BME280;64502;59.976;30.316;2022-12-05T11:20:05;102942.84;;;-1.20;75.82
75855;BME280;64502;59.976;30.316;2022-12-05T11:22:52;102941.34;;;-1.10;75.95
75855;BME280;64502;59.976;30.316;2022-12-05T11:27:53;102931.78;;;-1.13;74.72
75855;BME280;64502;59.976;30.316;2022-12-05T11:30:22;102925.66;;;-1.16;74.84
75855;BME280;64502;59.976;30.316;2022-12-05T11:32:49;102928.25;;;-1.16;74.99
75855;BME280;64502;59.976;30.316;2022-12-05T11:37:57;102918.84;;;-1.13;75.45
75855;BME280;64502;59.976;30.316;2022-12-05T11:40:32;102919.00;;;-1.06;74.19
75855;BME280;64502;59.976;30.316;2022-12-05T11:52:05;102911.38;;;-1.00;74.61
75855;BME280;64502;59.976;30.316;2022-12-05T11:54:59;102916.25;;;-1.13;74.71
75855;BME280;64502;59.976;30.316;2022-12-05T12:00:27;102902.41;;;-1.15;74.55
75855;BME280;64502;59.976;30.316;2022-12-05T12:06:31;102903.63;;;-1.00;74.59
75855;BME280;64502;59.976;30.316;2022-12-05T12:11:48;102919.16;;;-1.00;74.03
75855;BME280;64502;59.976;30.316;2022-12-05T12:19:48;102909.59;;;-1.01;75.06
75855;BME280;64502;59.976;30.316;2022-12-05T12:24:51;102905.16;;;-1.07;76.10
75855;BME280;64502;59.976;30.316;2022-12-05T12:30:00;102898.44;;;-1.00;74.61
75855;BME280;64502;59.976;30.316;2022-12-05T12:45:30;102870.84;;;-0.98;74.99
75855;BME280;64502;59.976;30.316;2022-12-05T12:50:53;102876.09;;;-0.95;74.56
75855;BME280;64502;59.976;30.316;2022-12-05T12:56:24;102876.84;;;-0.99;74.01
75855;BME280;64502;59.976;30.316;2022-12-05T12:59:23;102871.53;;;-1.04;74.40
75855;BME280;64502;59.976;30.316;2022-12-05T13:01:58;102881.91;;;-1.04;74.19
75855;BME280;64502;59.976;30.316;2022-12-05T13:04:34;102878.50;;;-1.03;75.37
75855;BME280;64502;59.976;30.316;2022-12-05T13:07:14;102876.84;;;-0.99;74.07
75855;BME280;64502;59.976;30.316;2022-12-05T13:10:28;102882.16;;;-0.95;73.14
75855;BME280;64502;59.976;30.316;2022-12-05T13:12:56;102876.91;;;-0.98;74.19
75855;BME280;64502;59.976;30.316;2022-12-05T13:15:44;102877.69;;;-1.00;74.00
75855;BME280;64502;59.976;30.316;2022-12-05T13:18:21;102878.53;;;-1.01;74.14
75855;BME280;64502;59.976;30.316;2022-12-05T13:20:49;102875.03;;;-1.03;74.04
75855;BME280;64502;59.976;30.316;2022-12-05T13:23:18;102876.84;;;-1.01;74.80
75855;BME280;64502;59.976;30.316;2022-12-05T13:25:46;102864.59;;;-1.06;73.92
75855;BME280;64502;59.976;30.316;2022-12-05T13:30:50;102864.59;;;-1.06;74.58
75855;BME280;64502;59.976;30.316;2022-12-05T13:33:29;102860.25;;;-1.07;74.99
75855;BME280;64502;59.976;30.316;2022-12-05T13:36:02;102851.53;;;-1.09;74.06
75855;BME280;64502;59.976;30.316;2022-12-05T13:38:47;102851.66;;;-1.06;74.83
75855;BME280;64502;59.976;30.316;2022-12-05T13:41:39;102853.19;;;-1.13;74.03
75855;BME280;64502;59.976;30.316;2022-12-05T13:44:31;102845.44;;;-1.13;74.56
75855;BME280;64502;59.976;30.316;2022-12-05T13:46:58;102851.47;;;-1.14;74.42
75855;BME280;64502;59.976;30.316;2022-12-05T13:50:15;102852.34;;;-1.12;73.70
75855;BME280;64502;59.976;30.316;2022-12-05T13:52:29;102852.28;;;-1.15;73.83
75855;BME280;64502;59.976;30.316;2022-12-05T14:07:50;102822.13;;;-1.13;74.62
75855;BME280;64502;59.976;30.316;2022-12-05T14:12:59;102822.97;;;-1.14;73.93
75855;BME280;64502;59.976;30.316;2022-12-05T14:18:28;102820.91;;;-1.27;74.40
75855;BME280;64502;59.976;30.316;2022-12-05T14:32:40;102813.34;;;-1.18;74.84
75855;BME280;64502;59.976;30.316;2022-12-05T14:37:56;102803.13;;;-1.12;75.15
75855;BME280;64502;59.976;30.316;2022-12-05T14:40:38;102801.53;;;-1.07;75.45
75855;BME280;64502;59.976;30.316;2022-12-05T14:45:38;102804.97;;;-1.08;74.64
75855;BME280;64502;59.976;30.316;2022-12-05T14:50:45;102799.66;;;-1.13;74.07
75855;BME280;64502;59.976;30.316;2022-12-05T14:53:20;102796.19;;;-1.15;74.08
75855;BME280;64502;59.976;30.316;2022-12-05T14:55:48;102784.00;;;-1.19;73.88
75855;BME280;64502;59.976;30.316;2022-12-05T15:00:58;102785.66;;;-1.22;74.50
75855;BME280;64502;59.976;30.316;2022-12-05T15:03:30;102781.28;;;-1.23;74.24
75855;BME280;64502;59.976;30.316;2022-12-05T15:05:57;102777.03;;;-1.21;74.03
75855;BME280;64502;59.976;30.316;2022-12-05T15:08:26;102768.38;;;-1.22;74.55
75855;BME280;64502;59.976;30.316;2022-12-05T15:10:54;102772.69;;;-1.22;74.17
75855;BME280;64502;59.976;30.316;2022-12-05T15:13:25;102771.78;;;-1.24;74.38
75855;BME280;64502;59.976;30.316;2022-12-05T15:23:52;102758.63;;;-1.33;74.38
75855;BME280;64502;59.976;30.316;2022-12-05T15:26:39;102749.00;;;-1.39;75.36
75855;BME280;64502;59.976;30.316;2022-12-05T15:29:09;102748.09;;;-1.40;74.91
75855;BME280;64502;59.976;30.316;2022-12-05T15:31:44;102753.25;;;-1.40;74.65
75855;BME280;64502;59.976;30.316;2022-12-05T15:34:15;102750.59;;;-1.43;74.79
75855;BME280;64502;59.976;30.316;2022-12-05T15:36:47;102747.16;;;-1.43;75.06
75855;BME280;64502;59.976;30.316;2022-12-05T15:39:18;102748.00;;;-1.44;74.14
75855;BME280;64502;59.976;30.316;2022-12-05T15:41:48;102747.09;;;-1.45;74.56
75855;BME280;64502;59.976;30.316;2022-12-05T15:44:14;102747.81;;;-1.52;73.95
75855;BME280;64502;59.976;30.316;2022-12-05T15:46:40;102741.69;;;-1.55;74.45
75855;BME280;64502;59.976;30.316;2022-12-05T15:49:26;102753.78;;;-1.54;74.19